Time;durP1;ratioP1;P1;durP2;ratioP2;P2;SDS_P1;SDS_P2;PMS_P1;PMS_P2;Temp;Humidity;BMP_temperature;BMP_pressure;BME280_temperature;BME280_humidity;BME280_pressure;Samples;Min_cycle;Max_cycle;Signal;HPM_P1;HPM_P2
2022/01/04 00:00:21;;;;;;;5.15;3.35;;;;;;;11.82;49.65;99588.19;5094305;28;20099;-47
2022/01/04 00:02:47;;;;;;;5.55;3.70;;;;;;;12.05;48.95;99590.31;5094063;28;20607;-38
2022/01/04 00:05:12;;;;;;;6.05;3.83;;;;;;;12.19;48.19;99585.69;5094564;28;20027;-38
2022/01/04 00:07:38;;;;;;;6.47;3.92;;;;;;;12.20;48.63;99589.16;5094262;28;20048;-38
2022/01/04 00:10:04;;;;;;;6.55;3.63;;;;;;;12.05;49.21;99586.81;5094286;28;20044;-38
2022/01/04 00:15:34;;;;;;;5.55;3.90;;;;;;;11.96;48.74;99588.94;5071486;28;20411;-38
2022/01/04 00:18:00;;;;;;;6.10;3.85;;;;;;;11.80;49.81;99590.22;5071411;28;20464;-37
2022/01/04 00:20:25;;;;;;;8.02;3.90;;;;;;;11.79;49.60;99593.13;5081866;28;20052;-38
2022/01/04 00:22:50;;;;;;;6.70;3.78;;;;;;;11.83;49.04;99583.66;5094041;28;20336;-37
2022/01/04 00:25:16;;;;;;;7.22;3.50;;;;;;;11.73;49.72;99598.28;5093944;28;20089;-37
2022/01/04 00:27:42;;;;;;;7.30;3.58;;;;;;;11.91;49.22;99591.44;5094056;28;20043;-37
2022/01/04 00:30:08;;;;;;;5.43;3.58;;;;;;;11.87;49.10;99595.53;5094265;28;20032;-38
2022/01/04 00:32:33;;;;;;;9.18;3.88;;;;;;;11.90;48.79;99592.47;5093953;28;20460;-38
2022/01/04 00:34:59;;;;;;;5.50;3.63;;;;;;;11.91;48.79;99592.22;5093763;28;20475;-37
2022/01/04 00:37:24;;;;;;;6.53;4.00;;;;;;;11.93;49.40;99592.84;5093713;28;20038;-38
2022/01/04 00:39:50;;;;;;;7.30;4.13;;;;;;;11.88;49.22;99597.16;5093803;28;20024;-38
2022/01/04 00:42:15;;;;;;;8.40;4.18;;;;;;;11.74;49.74;99604.41;5092387;28;20502;-37
2022/01/04 00:44:41;;;;;;;5.15;3.72;;;;;;;11.92;49.45;99593.06;5093622;28;20035;-38
2022/01/04 00:47:08;;;;;;;6.07;3.80;;;;;;;11.80;49.40;99597.41;5093685;28;20050;-37
2022/01/04 00:49:34;;;;;;;6.32;3.85;;;;;;;11.82;49.17;99590.84;5093496;28;20020;-38
2022/01/04 00:52:01;;;;;;;7.85;3.95;;;;;;;11.86;49.52;99589.38;5093391;28;20429;-38
2022/01/04 00:54:27;;;;;;;5.82;3.50;;;;;;;11.60;50.06;99602.88;5093425;28;20020;-37
2022/01/04 00:56:52;;;;;;;5.30;3.55;;;;;;;11.70;49.23;99588.03;5093207;28;20483;-38
2022/01/04 00:59:17;;;;;;;5.72;3.78;;;;;;;11.50;50.25;99582.81;5093478;28;20101;-38
2022/01/04 01:01:43;;;;;;;7.13;3.60;;;;;;;11.49;50.24;99581.19;5093067;28;20023;-37
2022/01/04 01:04:08;;;;;;;5.30;3.28;;;;;;;11.54;49.92;99599.22;5093182;28;20032;-38
2022/01/04 01:06:34;;;;;;;6.53;3.92;;;;;;;11.50;50.61;99585.50;5093377;28;20040;-37
2022/01/04 01:09:00;;;;;;;5.15;3.40;;;;;;;11.64;50.04;99593.41;5093175;28;20047;-38
2022/01/04 01:11:25;;;;;;;6.35;3.50;;;;;;;11.77;49.39;99595.19;5093278;28;20024;-38
2022/01/04 01:13:51;;;;;;;6.85;3.67;;;;;;;11.60;49.73;99593.03;5092983;28;20130;-38
2022/01/04 01:16:16;;;;;;;6.80;3.28;;;;;;;11.52;49.70;99591.44;5093177;28;20081;-37
2022/01/04 01:18:42;;;;;;;5.85;3.60;;;;;;;11.38;50.18;99586.38;5093007;28;20028;-37
2022/01/04 01:21:07;;;;;;;6.57;3.42;;;;;;;11.47;49.78;99585.91;5092976;28;20027;-38
2022/01/04 01:23:34;;;;;;;6.13;3.33;;;;;;;11.68;49.66;99582.09;5092828;28;20166;-38
2022/01/04 01:25:59;;;;;;;5.30;3.60;;;;;;;11.49;50.03;99585.69;5092710;28;20081;-37
2022/01/04 01:28:25;;;;;;;5.10;3.50;;;;;;;11.59;50.22;99586.03;5092680;28;20023;-37
2022/01/04 01:30:50;;;;;;;5.18;3.08;;;;;;;11.62;49.80;99588.28;5092932;28;20047;-38
2022/01/04 01:33:16;;;;;;;4.85;3.25;;;;;;;11.62;49.57;99587.47;5092823;28;21124;-37
2022/01/04 01:35:41;;;;;;;5.47;3.38;;;;;;;11.59;50.16;99585.25;5092576;28;20044;-38
2022/01/04 01:38:08;;;;;;;4.88;3.30;;;;;;;11.63;49.45;99578.44;5092584;28;20024;-38
2022/01/04 01:40:34;;;;;;;5.70;3.53;;;;;;;11.64;49.53;99582.75;5092579;28;20391;-37
2022/01/04 01:42:59;;;;;;;7.07;3.33;;;;;;;11.66;49.89;99576.16;5092618;28;20433;-37
2022/01/04 01:45:25;;;;;;;7.22;3.50;;;;;;;11.71;49.60;99568.34;5092560;28;20068;-37
2022/01/04 01:47:50;;;;;;;7.57;3.65;;;;;;;11.51;50.33;99563.13;5092292;28;20092;-38
2022/01/04 01:50:16;;;;;;;10.35;3.78;;;;;;;11.30;50.05;99560.78;5092399;28;20059;-38
2022/01/04 01:52:42;;;;;;;8.68;3.78;;;;;;;11.42;50.14;99556.41;5092116;28;20020;-37
2022/01/04 01:55:08;;;;;;;9.32;3.75;;;;;;;11.41;50.68;99557.47;5090892;28;20023;-38
2022/01/04 01:57:34;;;;;;;8.73;4.10;;;;;;;11.23;51.40;99557.34;5092065;28;20039;-37
2022/01/04 01:59:59;;;;;;;7.60;4.15;;;;;;;11.24;50.54;99556.31;5092206;28;20453;-37
2022/01/04 02:02:25;;;;;;;7.38;3.63;;;;;;;11.33;51.08;99560.38;5073721;28;20397;-37
2022/01/04 02:04:50;;;;;;;7.40;3.60;;;;;;;11.40;50.95;99568.31;5091878;28;20036;-38
2022/01/04 02:07:16;;;;;;;5.90;3.42;;;;;;;11.20;51.29;99569.25;5091850;28;20138;-37
2022/01/04 02:09:47;;;;;;;5.60;3.33;;;;;;;11.29;50.81;99561.81;5092178;28;20114;-37
2022/01/04 02:12:12;;;;;;;5.28;3.45;;;;;;;11.15;51.14;99558.41;5092542;28;20027;-36
2022/01/04 02:14:38;;;;;;;4.68;3.33;;;;;;;11.00;51.83;99557.84;5074526;28;20024;-36
2022/01/04 02:17:03;;;;;;;6.32;3.50;;;;;;;11.10;51.95;99560.88;5092348;28;20028;-36
2022/01/04 02:19:34;;;;;;;6.70;3.60;;;;;;;11.10;51.16;99556.38;5092350;28;20073;-38
2022/01/04 02:22:00;;;;;;;5.47;3.60;;;;;;;11.02;51.54;99561.13;5090735;28;20055;-38
2022/01/04 02:24:26;;;;;;;5.38;3.17;;;;;;;10.93;52.25;99561.34;5091681;28;20508;-38
2022/01/04 02:26:51;;;;;;;4.90;3.15;;;;;;;10.99;53.15;99570.34;5091738;28;20020;-38
2022/01/04 02:29:16;;;;;;;5.65;3.33;;;;;;;10.92;52.96;99578.34;5090598;28;20472;-38
2022/01/04 02:31:42;;;;;;;4.50;2.85;;;;;;;11.04;52.00;99567.03;5091843;28;20032;-37
2022/01/04 02:34:07;;;;;;;6.32;3.15;;;;;;;11.10;51.72;99568.84;5091935;28;20027;-38
2022/01/04 02:36:33;;;;;;;5.55;3.67;;;;;;;10.96;51.78;99570.75;5091688;28;20024;-38
2022/01/04 02:38:58;;;;;;;5.05;3.13;;;;;;;10.82;52.35;99564.66;5092044;28;20028;-38
2022/01/04 02:41:24;;;;;;;4.75;3.20;;;;;;;10.81;53.20;99567.53;5091887;28;20027;-38
2022/01/04 02:43:49;;;;;;;6.00;3.28;;;;;;;10.67;52.61;99556.91;5091663;28;20024;-38
2022/01/04 02:46:14;;;;;;;5.95;3.38;;;;;;;10.73;52.73;99560.59;5091538;28;20472;-38
2022/01/04 02:48:44;;;;;;;5.07;3.42;;;;;;;10.59;52.73;99570.47;5091859;28;20733;-38
2022/01/04 02:51:10;;;;;;;5.03;3.53;;;;;;;10.45;53.50;99568.81;5091733;28;20031;-38
2022/01/04 02:53:35;;;;;;;6.75;3.75;;;;;;;10.44;53.98;99573.34;5091723;28;20480;-38
2022/01/04 02:56:01;;;;;;;6.13;3.80;;;;;;;10.36;54.14;99592.19;5091583;28;20035;-38
2022/01/04 02:58:26;;;;;;;7.47;4.30;;;;;;;10.36;53.70;99587.66;5091487;28;20047;-38
2022/01/04 03:00:52;;;;;;;6.68;3.83;;;;;;;10.11;54.02;99583.94;5091776;28;20096;-38
2022/01/04 03:03:17;;;;;;;8.63;3.90;;;;;;;10.33;54.10;99587.25;5091543;28;20024;-38
2022/01/04 03:05:42;;;;;;;6.75;4.13;;;;;;;10.11;55.34;99598.09;5089766;28;20024;-38
2022/01/04 03:08:08;;;;;;;6.47;3.97;;;;;;;10.33;54.30;99605.88;5091390;28;20044;-38
2022/01/04 03:10:35;;;;;;;5.97;4.18;;;;;;;10.11;54.46;99599.91;5091470;28;20142;-38
2022/01/04 03:13:02;;;;;;;5.80;4.07;;;;;;;9.90;55.72;99593.78;5091529;28;20024;-38
2022/01/04 03:15:28;;;;;;;5.85;4.00;;;;;;;9.68;56.74;99584.31;5091659;28;20475;-38
2022/01/04 03:17:53;;;;;;;9.73;4.05;;;;;;;9.54;56.85;99580.81;5091650;28;20074;-37
2022/01/04 03:20:19;;;;;;;8.07;3.70;;;;;;;9.43;56.41;99573.44;5091050;28;20024;-37
2022/01/04 03:22:44;;;;;;;5.50;3.78;;;;;;;9.54;56.26;99578.16;5091185;28;20038;-38
2022/01/04 03:25:11;;;;;;;6.50;4.28;;;;;;;9.61;56.23;99573.66;5091233;28;20027;-38
2022/01/04 03:27:36;;;;;;;7.00;4.20;;;;;;;9.51;56.12;99570.59;5091421;28;20407;-38
2022/01/04 03:30:02;;;;;;;6.95;4.05;;;;;;;9.67;55.58;99566.72;5091249;28;20468;-38
2022/01/04 03:32:28;;;;;;;7.18;4.28;;;;;;;9.78;55.36;99566.13;5091490;28;20490;-38
2022/01/04 03:34:53;;;;;;;8.00;4.03;;;;;;;9.63;55.76;99566.31;5091427;28;20020;-38
2022/01/04 03:37:19;;;;;;;7.82;4.38;;;;;;;9.32;56.62;99577.47;5091217;28;20486;-38
2022/01/04 03:39:44;;;;;;;7.75;4.40;;;;;;;9.24;57.00;99573.16;5091269;28;20043;-38
2022/01/04 03:42:09;;;;;;;7.13;4.13;;;;;;;9.42;56.34;99577.91;5091067;28;20031;-38
2022/01/04 03:44:35;;;;;;;7.97;4.32;;;;;;;9.37;56.10;99583.81;5091347;28;20020;-38
2022/01/04 03:47:00;;;;;;;7.90;4.03;;;;;;;9.40;56.37;99582.59;5091044;28;20035;-48
2022/01/04 03:49:26;;;;;;;7.43;4.20;;;;;;;9.36;56.18;99587.50;5090544;28;20020;-48
2022/01/04 03:51:51;;;;;;;7.30;4.20;;;;;;;9.51;55.93;99581.22;5090592;28;20032;-48
2022/01/04 03:54:17;;;;;;;9.57;4.63;;;;;;;9.62;55.86;99579.81;5090620;28;20024;-51
2022/01/04 03:56:42;;;;;;;9.95;4.40;;;;;;;9.43;56.20;99587.53;5091089;28;20481;-49
2022/01/04 03:59:08;;;;;;;8.85;4.90;;;;;;;9.46;56.29;99592.44;5091218;28;20030;-48
2022/01/04 04:01:33;;;;;;;5.85;4.13;;;;;;;9.48;55.77;99589.56;5089635;28;20455;-51
2022/01/04 04:03:58;;;;;;;8.38;4.70;;;;;;;9.41;56.31;99597.53;5090631;28;20042;-52
2022/01/04 04:06:24;;;;;;;48.75;28.45;;;;;;;9.33;57.18;99595.88;5090988;28;20031;-51
2022/01/04 04:08:49;;;;;;;26.27;13.80;;;;;;;9.30;57.15;99593.59;5090918;28;20044;-51
2022/01/04 04:11:15;;;;;;;24.17;12.55;;;;;;;9.30;56.48;99593.59;5090304;28;20028;-49
2022/01/04 04:13:40;;;;;;;28.15;13.73;;;;;;;9.41;56.15;99599.38;5089776;28;20163;-50
2022/01/04 04:16:06;;;;;;;7.95;4.90;;;;;;;9.26;60.05;99597.69;5091759;28;20420;-49
2022/01/04 04:18:31;;;;;;;9.00;5.22;;;;;;;9.13;57.01;99597.63;5094505;28;20094;-48
2022/01/04 04:20:57;;;;;;;7.93;4.53;;;;;;;8.96;57.43;99594.47;5094552;28;20073;-48
2022/01/04 04:23:22;;;;;;;6.70;4.25;;;;;;;8.91;57.63;99595.06;5094550;28;20036;-47
2022/01/04 04:25:48;;;;;;;7.30;4.38;;;;;;;8.68;58.17;99592.69;5094500;28;20036;-48
2022/01/04 04:28:13;;;;;;;6.85;4.57;;;;;;;8.67;57.34;99584.94;5094155;28;20128;-48
2022/01/04 04:30:39;;;;;;;7.38;4.22;;;;;;;8.76;57.50;99581.13;5094063;28;20136;-48
2022/01/04 04:33:04;;;;;;;7.60;4.15;;;;;;;9.31;55.81;99583.78;5093647;28;20457;-49
2022/01/04 04:35:30;;;;;;;5.85;3.83;;;;;;;9.40;55.87;99582.59;5093662;28;20172;-50
2022/01/04 04:37:58;;;;;;;7.97;4.00;;;;;;;9.27;55.91;99587.88;5093884;28;20468;-51
2022/01/04 04:40:23;;;;;;;6.63;3.95;;;;;;;9.36;55.55;99584.84;5093723;28;20059;-50
2022/01/04 04:42:49;;;;;;;8.07;4.60;;;;;;;9.14;56.16;99588.66;5093535;28;20056;-50
2022/01/04 04:45:14;;;;;;;8.82;4.38;;;;;;;8.99;56.82;99594.91;5093527;28;20361;-51
2022/01/04 04:47:40;;;;;;;6.75;4.20;;;;;;;9.32;55.86;99580.94;5094157;28;20024;-49
2022/01/04 04:50:06;;;;;;;6.78;4.30;;;;;;;9.61;54.99;99583.47;5093151;28;20432;-50
2022/01/04 04:52:31;;;;;;;11.00;4.38;;;;;;;9.24;56.60;99586.44;5093709;28;20016;-51
2022/01/04 04:54:57;;;;;;;8.32;4.63;;;;;;;9.11;56.51;99597.00;5093815;28;20483;-49
2022/01/04 04:57:22;;;;;;;9.00;4.25;;;;;;;9.08;55.88;99594.72;5093395;28;20460;-50
2022/01/04 04:59:48;;;;;;;7.25;4.47;;;;;;;9.05;56.35;99603.09;5093829;28;20062;-52
2022/01/04 05:02:13;;;;;;;7.85;4.32;;;;;;;9.14;56.18;99599.28;5093287;28;20050;-50
2022/01/04 05:04:39;;;;;;;7.25;4.95;;;;;;;9.17;55.62;99593.56;5093700;28;20093;-50
2022/01/04 05:07:05;;;;;;;8.18;4.70;;;;;;;8.83;56.82;99594.41;5093461;28;20055;-48
2022/01/04 05:09:30;;;;;;;7.45;4.10;;;;;;;8.99;56.73;99584.28;5093230;28;20507;-49
2022/01/04 05:11:55;;;;;;;7.75;4.20;;;;;;;9.04;56.16;99588.19;5092728;28;20020;-51
2022/01/04 05:14:21;;;;;;;8.15;4.10;;;;;;;9.18;55.52;99582.75;5092951;28;20031;-49
2022/01/04 05:16:47;;;;;;;8.02;3.95;;;;;;;10.02;57.66;99591.31;5092347;28;20028;-50
2022/01/04 05:19:13;;;;;;;7.53;3.72;;;;;;;9.31;56.13;99578.47;5092962;28;20030;-49
2022/01/04 05:21:38;;;;;;;6.93;3.85;;;;;;;9.11;56.87;99576.56;5092767;28;20024;-51
2022/01/04 05:24:04;;;;;;;5.28;3.58;;;;;;;8.90;56.65;99576.69;5092596;28;20031;-51
2022/01/04 05:26:30;;;;;;;7.82;3.97;;;;;;;9.01;57.11;99576.13;5092865;28;20024;-49
2022/01/04 05:28:55;;;;;;;7.15;3.63;;;;;;;8.96;57.11;99574.06;5092083;28;20024;-50
2022/01/04 05:31:20;;;;;;;7.47;4.20;;;;;;;8.87;56.70;99577.06;5092355;28;20061;-48
2022/01/04 05:33:46;;;;;;;6.80;4.15;;;;;;;8.95;56.90;99579.59;5092382;28;20028;-48
2022/01/04 05:36:11;;;;;;;7.28;4.35;;;;;;;8.81;57.29;99583.97;5092200;28;20031;-48
2022/01/04 05:38:37;;;;;;;11.05;6.07;;;;;;;8.81;57.06;99589.28;5092363;28;20448;-48
2022/01/04 05:41:02;;;;;;;8.00;4.20;;;;;;;8.94;56.83;99607.94;5092218;28;20086;-48
2022/01/04 05:43:28;;;;;;;6.80;3.90;;;;;;;8.94;56.29;99599.97;5092391;28;20032;-51
2022/01/04 05:45:53;;;;;;;7.85;3.80;;;;;;;8.75;56.92;99598.03;5092623;28;20027;-47
2022/01/04 05:48:20;;;;;;;7.70;3.85;;;;;;;9.18;57.03;99589.91;5090875;28;20020;-48
2022/01/04 05:50:46;;;;;;;5.40;3.63;;;;;;;9.20;56.68;99582.53;5085570;28;20539;-49
2022/01/04 05:53:12;;;;;;;10.38;3.70;;;;;;;9.16;55.60;99587.44;5077112;28;20020;-49
2022/01/04 05:55:37;;;;;;;8.68;4.38;;;;;;;9.08;56.27;99582.31;5091967;28;20483;-52
2022/01/04 05:58:03;;;;;;;11.23;3.75;;;;;;;9.11;56.04;99581.06;5092287;28;20024;-51
2022/01/04 06:00:28;;;;;;;16.95;10.63;;;;;;;9.25;56.32;99585.41;5092236;28;20028;-49
2022/01/04 06:02:54;;;;;;;8.70;4.00;;;;;;;9.03;56.36;99594.53;5091826;28;20028;-52
2022/01/04 06:05:19;;;;;;;6.00;3.97;;;;;;;9.21;55.64;99605.41;5091991;28;20497;-53
2022/01/04 06:07:45;;;;;;;8.30;4.40;;;;;;;9.13;56.25;99592.31;5091788;28;20136;-52
2022/01/04 06:10:12;;;;;;;9.40;4.40;;;;;;;8.93;55.99;99592.19;5092298;28;20016;-51
2022/01/04 06:15:07;;;;;;;6.50;4.20;;;;;;;9.25;55.39;99614.63;5090441;28;20408;-51
2022/01/04 06:17:38;;;;;;;68.88;36.38;;;;;;;9.34;55.11;99621.41;5090314;28;20097;-49
2022/01/04 06:20:05;;;;;;;13.30;7.15;;;;;;;9.40;55.67;99614.47;5090143;28;20460;-49
2022/01/04 06:22:30;;;;;;;41.17;23.85;;;;;;;9.49;54.66;99609.81;5090111;28;20020;-49
2022/01/04 06:24:56;;;;;;;20.50;10.20;;;;;;;9.57;55.43;99614.94;5089812;28;20035;-47
2022/01/04 06:27:22;;;;;;;11.95;5.38;;;;;;;9.70;54.58;99616.81;5090272;28;20681;-47
2022/01/04 06:29:47;;;;;;;10.43;5.55;;;;;;;9.95;54.33;99615.22;5091027;28;20031;-47
2022/01/04 06:32:13;;;;;;;9.85;5.38;;;;;;;9.99;53.64;99615.66;5090890;28;20364;-49
2022/01/04 06:34:39;;;;;;;10.80;5.90;;;;;;;10.08;54.55;99616.28;5090983;28;20030;-49
2022/01/04 06:37:04;;;;;;;11.75;5.63;;;;;;;10.22;52.50;99611.78;5091107;28;20486;-48
2022/01/04 06:39:30;;;;;;;11.63;5.60;;;;;;;10.23;52.37;99613.44;5089877;28;20090;-51
2022/01/04 06:41:55;;;;;;;13.25;5.13;;;;;;;10.50;50.61;99616.94;5090903;28;20107;-50
2022/01/04 06:44:21;;;;;;;9.88;5.00;;;;;;;10.69;50.01;99620.59;5090987;28;20023;-50
2022/01/04 06:46:46;;;;;;;9.77;5.00;;;;;;;10.54;51.05;99626.94;5090965;28;20027;-50
2022/01/04 06:49:16;;;;;;;11.93;5.10;;;;;;;10.81;51.86;99634.88;5090791;28;20467;-51
2022/01/04 06:51:41;;;;;;;17.45;5.25;;;;;;;10.84;51.58;99623.84;5090802;28;20053;-50
2022/01/04 06:54:08;;;;;;;13.43;5.57;;;;;;;11.06;51.91;99628.91;5090358;28;20028;-49
2022/01/04 06:56:33;;;;;;;13.20;5.78;;;;;;;11.13;51.28;99637.69;5090711;28;20490;-50
2022/01/04 06:58:59;;;;;;;13.45;6.05;;;;;;;11.24;51.69;99644.22;5090705;28;20024;-49
2022/01/04 07:01:24;;;;;;;12.43;6.45;;;;;;;11.37;51.74;99646.03;5090516;28;20024;-48
2022/01/04 07:03:50;;;;;;;12.63;7.10;;;;;;;11.60;51.69;99651.66;5090567;28;20036;-48
2022/01/04 07:06:15;;;;;;;18.55;10.07;;;;;;;11.74;50.49;99649.75;5090640;28;20085;-47
2022/01/04 07:08:41;;;;;;;24.23;9.80;;;;;;;11.77;50.63;99640.50;5090994;28;20791;-51
2022/01/04 07:11:06;;;;;;;17.40;9.05;;;;;;;11.74;51.26;99636.41;5090584;28;20020;-51
2022/01/04 07:13:32;;;;;;;16.27;8.63;;;;;;;11.68;50.99;99629.28;5090479;28;20024;-51
2022/01/04 07:15:57;;;;;;;19.52;7.75;;;;;;;11.81;49.59;99631.06;5090244;28;20023;-48
2022/01/04 07:18:23;;;;;;;17.05;7.93;;;;;;;11.68;48.82;99632.75;5090464;28;20024;-51
2022/01/04 07:20:48;;;;;;;18.48;8.38;;;;;;;11.54;49.17;99625.88;5090260;28;20058;-51
2022/01/04 07:23:14;;;;;;;18.35;8.02;;;;;;;11.68;49.27;99614.09;5090306;28;20125;-49
2022/01/04 07:25:39;;;;;;;20.70;7.85;;;;;;;11.44;49.54;99617.50;5089169;28;20028;-49
2022/01/04 07:28:05;;;;;;;18.15;7.72;;;;;;;11.60;49.35;99598.34;5090350;28;20080;-49
2022/01/04 07:30:30;;;;;;;24.13;8.65;;;;;;;11.92;47.82;99609.88;5090160;28;20042;-48
2022/01/04 07:32:56;;;;;;;22.55;9.48;;;;;;;12.15;47.79;99605.81;5090148;28;20480;-48
2022/01/04 07:35:21;;;;;;;20.73;9.07;;;;;;;11.86;48.84;99621.38;5090355;28;20135;-50
2022/01/04 07:37:47;;;;;;;26.95;9.18;;;;;;;11.79;49.94;99615.25;5090173;28;20027;-49
2022/01/04 07:40:12;;;;;;;20.92;8.45;;;;;;;11.54;50.13;99609.88;5090209;28;20027;-49
2022/01/04 07:42:38;;;;;;;19.95;8.13;;;;;;;11.72;49.09;99612.63;5089905;28;20027;-49
2022/01/04 07:45:03;;;;;;;22.02;8.05;;;;;;;11.81;49.18;99609.72;5090063;28;20063;-49
2022/01/04 07:47:29;;;;;;;27.52;8.98;;;;;;;11.74;48.83;99618.56;5089200;28;20020;-47
2022/01/04 07:49:54;;;;;;;21.40;8.90;;;;;;;11.84;48.15;99619.94;5088872;28;20051;-49
2022/01/04 07:52:20;;;;;;;16.05;8.00;;;;;;;11.91;47.97;99628.75;5092218;28;20475;-51
2022/01/04 07:54:45;;;;;;;22.73;9.00;;;;;;;11.95;47.78;99621.16;5093212;28;20452;-53
2022/01/04 07:57:11;;;;;;;25.95;8.60;;;;;;;12.05;47.53;99619.66;5093157;28;20047;-50
2022/01/04 07:59:36;;;;;;;17.27;7.50;;;;;;;12.45;47.54;99626.50;5092923;28;20024;-49
2022/01/04 08:02:02;;;;;;;16.33;7.60;;;;;;;12.35;47.33;99616.31;5092919;28;20077;-48
2022/01/04 08:04:28;;;;;;;18.40;8.40;;;;;;;12.11;48.03;99615.31;5093015;28;20036;-48
2022/01/04 08:06:53;;;;;;;23.92;10.55;;;;;;;12.10;48.47;99616.31;5093063;28;20024;-51
2022/01/04 08:09:18;;;;;;;22.48;11.43;;;;;;;11.88;49.68;99637.13;5092822;28;20124;-49
2022/01/04 08:11:44;;;;;;;28.70;11.57;;;;;;;12.26;49.70;99623.81;5092684;28;20028;-48
2022/01/04 08:14:09;;;;;;;26.40;11.65;;;;;;;12.38;48.90;99629.25;5092880;28;20216;-48
2022/01/04 08:16:35;;;;;;;30.70;11.18;;;;;;;12.78;47.67;99630.75;5093005;28;20024;-51
2022/01/04 08:19:00;;;;;;;24.08;10.80;;;;;;;12.69;47.44;99628.34;5093231;28;20089;-50
2022/01/04 08:21:26;;;;;;;21.58;8.85;;;;;;;12.73;48.26;99636.72;5092589;28;20024;-49
2022/01/04 08:23:52;;;;;;;20.02;9.05;;;;;;;12.47;48.47;99633.28;5093077;28;20031;-49
2022/01/04 08:26:18;;;;;;;15.88;8.13;;;;;;;12.44;48.78;99639.03;5092601;28;20560;-49
2022/01/04 08:28:44;;;;;;;18.33;8.18;;;;;;;12.25;48.46;99648.03;5092500;28;20025;-49
2022/01/04 08:31:11;;;;;;;19.83;8.23;;;;;;;12.27;49.33;99652.09;5092482;28;20024;-51
2022/01/04 08:33:37;;;;;;;19.38;8.18;;;;;;;12.43;48.18;99652.59;5092485;28;20452;-48
2022/01/04 08:36:03;;;;;;;15.73;6.95;;;;;;;12.57;56.09;99658.66;5092157;28;20028;-48
2022/01/04 08:38:28;;;;;;;16.25;7.80;;;;;;;13.19;50.22;99659.47;5092364;28;20027;-48
2022/01/04 08:40:53;;;;;;;14.40;7.60;;;;;;;13.22;50.47;99661.72;5092218;28;20024;-48
2022/01/04 08:43:19;;;;;;;15.45;8.25;;;;;;;13.68;50.68;99652.31;5092594;28;20070;-48
2022/01/04 08:45:44;;;;;;;18.40;8.48;;;;;;;14.25;49.07;99657.28;5092846;28;20032;-49
2022/01/04 08:48:10;;;;;;;16.23;8.15;;;;;;;14.26;50.57;99653.56;5091762;28;20093;-49
2022/01/04 08:50:35;;;;;;;18.15;8.98;;;;;;;14.35;47.50;99645.22;5093062;28;20031;-48
2022/01/04 08:53:01;;;;;;;18.48;9.50;;;;;;;14.30;45.23;99637.88;5093265;28;20020;-48
2022/01/04 08:55:27;;;;;;;21.33;9.40;;;;;;;13.76;46.57;99634.34;5093527;28;20431;-47
2022/01/04 08:57:52;;;;;;;18.35;10.25;;;;;;;13.77;46.17;99634.13;5093440;28;20445;-50
2022/01/04 09:00:18;;;;;;;22.73;10.52;;;;;;;13.81;45.79;99634.50;5093234;28;20077;-48
2022/01/04 09:02:44;;;;;;;22.73;10.90;;;;;;;13.89;44.49;99628.81;5092209;28;20371;-49
2022/01/04 09:05:10;;;;;;;19.65;11.27;;;;;;;13.57;45.98;99623.69;5093135;28;20047;-49
2022/01/04 09:07:35;;;;;;;20.08;11.07;;;;;;;13.60;45.72;99622.44;5091908;28;20134;-47
2022/01/04 09:10:01;;;;;;;23.55;10.10;;;;;;;13.37;46.49;99623.13;5092685;28;20522;-50
2022/01/04 09:12:36;;;;;;;22.23;10.52;;;;;;;13.66;45.06;99619.66;5092719;28;20024;-50
2022/01/04 09:15:26;;;;;;;20.25;9.75;;;;;;;13.69;45.13;99607.72;5092576;28;20141;-49
2022/01/04 09:20:33;;;;;;;19.25;9.38;;;;;;;13.75;44.42;99598.78;5092898;28;20092;-50
2022/01/04 09:22:59;;;;;;;17.95;9.15;;;;;;;13.74;45.26;99597.13;5092239;28;20024;-49
2022/01/04 09:25:24;;;;;;;15.50;9.18;;;;;;;13.87;45.50;99594.25;5092284;28;20028;-48
2022/01/04 09:27:51;;;;;;;17.70;9.25;;;;;;;14.11;44.54;99598.84;5091298;28;20024;-48
2022/01/04 09:30:17;;;;;;;20.98;9.25;;;;;;;14.23;43.40;99603.19;5092396;28;20028;-51
2022/01/04 09:32:42;;;;;;;13.13;8.35;;;;;;;14.70;42.14;99596.22;5092015;28;20020;-47
2022/01/04 09:35:08;;;;;;;16.50;7.80;;;;;;;14.88;41.36;99592.63;5092217;28;20024;-48
2022/01/04 09:37:34;;;;;;;15.43;7.53;;;;;;;14.78;41.38;99585.19;5092149;28;20065;-48
2022/01/04 09:39:59;;;;;;;16.60;7.60;;;;;;;14.96;40.83;99581.53;5092081;28;20016;-48
2022/01/04 09:42:25;;;;;;;13.98;7.28;;;;;;;14.96;41.01;99571.63;5092035;28;20016;-49
2022/01/04 09:44:50;;;;;;;20.52;7.72;;;;;;;15.13;40.72;99566.34;5091793;28;20028;-50
2022/01/04 09:47:16;;;;;;;16.45;7.78;;;;;;;14.97;40.91;99559.06;5091733;28;20028;-47
2022/01/04 09:49:41;;;;;;;13.13;7.00;;;;;;;14.95;41.78;99555.81;5091990;28;20089;-49
2022/01/04 09:52:08;;;;;;;12.02;7.03;;;;;;;15.04;40.73;99549.00;5092242;28;20034;-47
2022/01/04 09:54:33;;;;;;;11.60;6.32;;;;;;;15.24;39.95;99546.72;5090721;28;20027;-49
2022/01/04 09:56:59;;;;;;;15.85;7.45;;;;;;;15.27;40.38;99532.06;5073706;28;20015;-49
2022/01/04 09:59:24;;;;;;;15.13;7.28;;;;;;;15.54;38.84;99540.31;5090510;28;20019;-48
2022/01/04 10:01:55;;;;;;;12.90;6.97;;;;;;;15.40;38.26;99529.09;5091502;28;20024;-49
2022/01/04 10:04:24;;;;;;;14.60;7.35;;;;;;;15.40;39.23;99528.25;5091590;28;20394;-48
2022/01/04 10:07:01;;;;;;;15.77;7.85;;;;;;;15.57;37.86;99525.59;5091793;28;20028;-51
2022/01/04 10:09:45;;;;;;;15.45;7.85;;;;;;;15.24;38.72;99521.78;5091412;28;20119;-51
2022/01/04 10:12:12;;;;;;;22.55;7.82;;;;;;;15.29;38.91;99515.69;5091739;28;20028;-49
2022/01/04 10:14:43;;;;;;;15.75;7.80;;;;;;;15.57;37.81;99514.88;5090908;28;20020;-50
2022/01/04 10:17:09;;;;;;;14.93;7.43;;;;;;;15.09;38.93;99513.47;5090906;28;20024;-51
2022/01/04 10:19:37;;;;;;;18.90;8.20;;;;;;;15.02;39.76;99510.91;5090836;28;20456;-50
2022/01/04 10:22:34;;;;;;;14.55;7.65;;;;;;;15.38;38.42;99498.19;5091153;28;20019;-50
2022/01/04 10:25:03;;;;;;;16.60;7.05;;;;;;;15.42;38.33;99504.69;5091306;28;20107;-48
2022/01/04 10:27:36;;;;;;;13.20;6.85;;;;;;;15.21;38.60;99492.78;5091399;28;20031;-49
2022/01/04 10:30:11;;;;;;;15.63;7.05;;;;;;;15.24;38.96;99478.91;5091362;28;20020;-51
2022/01/04 10:32:59;;;;;;;17.90;7.32;;;;;;;15.44;39.01;99471.22;5091334;28;20024;-50
2022/01/04 10:35:31;;;;;;;13.82;6.57;;;;;;;15.71;38.38;99462.56;5091460;28;20028;-50
2022/01/04 10:37:59;;;;;;;15.75;7.15;;;;;;;15.40;38.48;99458.53;5089707;28;20028;-51
2022/01/04 10:40:25;;;;;;;12.32;6.80;;;;;;;15.77;37.77;99456.22;5090748;28;20059;-50
2022/01/04 10:42:51;;;;;;;16.88;6.68;;;;;;;15.95;37.79;99455.16;5091060;28;20028;-51
2022/01/04 10:45:28;;;;;;;15.73;6.72;;;;;;;15.73;37.53;99448.91;5090930;28;20093;-50
2022/01/04 10:47:53;;;;;;;16.92;7.28;;;;;;;15.86;37.35;99445.09;5090469;28;20020;-49
2022/01/04 10:50:32;;;;;;;12.13;6.93;;;;;;;15.99;37.78;99440.22;5089591;28;20046;-49
2022/01/04 10:52:59;;;;;;;19.35;7.22;;;;;;;15.86;38.00;99445.09;5088474;28;20080;-49
2022/01/04 10:55:24;;;;;;;12.80;6.32;;;;;;;15.95;37.96;99438.25;5089446;28;20094;-51
2022/01/04 10:57:50;;;;;;;14.52;6.43;;;;;;;16.20;37.39;99432.41;5090946;28;20028;-49
2022/01/04 11:00:17;;;;;;;10.23;6.35;;;;;;;16.20;37.27;99427.06;5090958;28;20092;-49
2022/01/04 11:02:42;;;;;;;12.10;7.03;;;;;;;16.08;37.23;99418.31;5090633;28;20036;-50
2022/01/04 11:05:18;;;;;;;9.75;6.43;;;;;;;16.35;37.23;99421.06;5090590;28;20089;-51
2022/01/04 11:08:03;;;;;;;14.80;6.80;;;;;;;16.36;37.11;99418.16;5090592;28;20139;-50
2022/01/04 11:10:32;;;;;;;14.38;6.57;;;;;;;16.28;37.74;99413.22;5091057;28;20024;-48
2022/01/04 11:13:00;;;;;;;11.80;5.50;;;;;;;16.08;36.77;99416.44;5088987;28;20180;-50
2022/01/04 11:15:26;;;;;;;12.38;4.97;;;;;;;16.29;35.58;99412.13;5091022;28;20024;-51
2022/01/04 11:17:51;;;;;;;9.25;5.05;;;;;;;16.15;36.65;99411.69;5090606;28;20028;-51
2022/01/04 11:20:17;;;;;;;12.23;5.03;;;;;;;15.95;36.46;99416.78;5089192;28;20024;-51
2022/01/04 11:22:47;;;;;;;7.93;4.90;;;;;;;16.18;36.71;99411.22;5090374;28;20028;-49
2022/01/04 11:25:14;;;;;;;11.25;6.25;;;;;;;16.25;36.92;99410.22;5089637;28;20103;-48
2022/01/04 11:27:40;;;;;;;10.85;5.80;;;;;;;16.13;37.00;99410.34;5095322;28;20483;-51
2022/01/04 11:30:32;;;;;;;9.02;5.00;;;;;;;16.27;37.12;99403.53;5078683;28;20057;-51
2022/01/04 11:32:59;;;;;;;7.43;4.40;;;;;;;15.93;37.80;99402.81;5094530;28;20054;-49
2022/01/04 11:35:26;;;;;;;8.95;5.00;;;;;;;16.44;38.17;99394.63;5096873;28;20028;-51